logo tempoitalia

Diretta Meteo Parsons Tri-City, Stati Uniti (USA)lunedì 31 agosto ore 00:52

Mappa
Sereno 29 °C Sereno 24 Ore: T.min 23 T.max 38
Ponente Sud Km/h 18.5 Punto di rugiada: 16 °C Umidità: 45% Visibilità: 10 Km
Il sole sorge alle: 06:51 Il sole tramonta alle: 19:52
31 Agosto 2026 00:52 tempo osservato: Sereno Sereno 29 45 1014 vento: Nord S 18.5
30 Agosto 2026 23:52 tempo osservato: Sereno Sereno 28 45 1013 vento: Nord S 7.4
30 Agosto 2026 22:52 tempo osservato: Sereno Sereno 29 42 1013 vento: Nord S/SE 11.1
30 Agosto 2026 21:52 tempo osservato: Sereno Sereno 30 42 1012 vento: Nord S/SE 16.7
30 Agosto 2026 20:52 tempo osservato: Sereno Sereno 32 38 1012 vento: Nord S/SE 16.7
30 Agosto 2026 19:52 tempo osservato: Sereno Sereno 34 34 1011 vento: Nord S 11.1
30 Agosto 2026 18:52 tempo osservato: Sereno Sereno 36 30 1011 vento: Nord S 18.5
30 Agosto 2026 17:52 tempo osservato: Sereno Sereno 37 28 1011 vento: Nord S 20.3
30 Agosto 2026 16:52 tempo osservato: Sereno Sereno 38 25 1011 vento: Nord S 24
30 Agosto 2026 15:52 tempo osservato: Sereno Sereno 38 27 1012 vento: Nord S 24
30 Agosto 2026 14:52 tempo osservato: Sereno Sereno 37 30 1013 vento: Nord S/SO 25.9
30 Agosto 2026 13:52 tempo osservato: Sereno Sereno 36 32 1013 vento: Nord S/SO 24
30 Agosto 2026 12:52 tempo osservato: Sereno Sereno 36 34 1014 vento: Nord S 27.8
30 Agosto 2026 11:52 tempo osservato: Sereno Sereno 34 38 1015 vento: Nord S 29.6
30 Agosto 2026 10:52 tempo osservato: Sereno Sereno 33 38 1015 vento: Nord S 22.2
30 Agosto 2026 09:52 tempo osservato: Sereno Sereno 30 45 1015 vento: Nord S/SO 27.8
30 Agosto 2026 08:52 tempo osservato: Sereno Sereno 27 50 1015 vento: Nord S 24
30 Agosto 2026 07:52 tempo osservato: Sereno Sereno 24 60 1015 vento: Nord S 14.8
30 Agosto 2026 06:52 tempo osservato: Sereno Sereno 23 60 1015 vento: Nord S 13
30 Agosto 2026 05:52 tempo osservato: Sereno Sereno 24 57 1015 vento: Nord S 11.1
30 Agosto 2026 04:52 tempo osservato: Sereno Sereno 24 57 1015 vento: Nord S 14.8
30 Agosto 2026 03:52 tempo osservato: Sereno Sereno 26 47 1014 vento: Nord S 18.5
30 Agosto 2026 02:52 tempo osservato: Sereno Sereno 27 44 1014 vento: Nord S/SE 18.5
30 Agosto 2026 01:52 tempo osservato: Sereno Sereno 27 44 1014 vento: Nord S/SE 14.8